Time;durP1;ratioP1;P1;durP2;ratioP2;P2;SDS_P1;SDS_P2;PMS_P1;PMS_P2;Temp;Humidity;BMP_temperature;BMP_pressure;BME280_temperature;BME280_humidity;BME280_pressure;Samples;Min_cycle;Max_cycle;Signal;HPM_P1;HPM_P2
2023/07/15 00:00:32;;;;;;;3.1;2.9;;;;;;;19.19;91.91211;936.9022;;;;
2023/07/15 00:02:57;;;;;;;3.5;3.1;;;;;;;19.04;92.88086;936.9256;;;;
2023/07/15 00:05:28;;;;;;;4.4;3;;;;;;;18.98;92.95117;936.9227;;;;
2023/07/15 00:07:57;;;;;;;4.6;2.9;;;;;;;19.01;92.73535;936.8872;;;;
2023/07/15 00:10:22;;;;;;;5.5;3.3;;;;;;;18.87;93.58984;936.9189;;;;
2023/07/15 00:12:51;;;;;;;4;3;;;;;;;18.9;93.59766;936.9157;;;;
2023/07/15 00:15:16;;;;;;;3.7;3;;;;;;;19.02;92.16504;936.8822;;;;
2023/07/15 00:17:41;;;;;;;5.2;3;;;;;;;19.02;92.12988;936.9023;;;;
2023/07/15 00:20:14;;;;;;;3.4;3.1;;;;;;;18.92;92.86816;936.8596;;;;
2023/07/15 00:22:41;;;;;;;3.9;2.9;;;;;;;19.02;92.23535;936.9161;;;;
2023/07/15 00:25:07;;;;;;;3.8;3.2;;;;;;;19.01;92.23535;936.9413;;;;
2023/07/15 00:27:38;;;;;;;3.3;3;;;;;;;18.95;92.87207;936.9525;;;;
2023/07/15 00:30:07;;;;;;;4.4;3;;;;;;;18.98;92.54199;936.9486;;;;
2023/07/15 00:32:32;;;;;;;4.8;3.1;;;;;;;19.03;92.33203;936.9814;;;;
2023/07/15 00:35:00;;;;;;;3.6;3;;;;;;;19.08;92.43457;937.015;;;;
2023/07/15 00:37:28;;;;;;;3.5;3.2;;;;;;;19.11;91.95313;937.0237;;;;
2023/07/15 00:39:52;;;;;;;4.8;2.9;;;;;;;19.06;91.88574;936.9677;;;;
2023/07/15 00:42:17;;;;;;;5.8;3.3;;;;;;;18.97;92.2627;936.9511;;;;
2023/07/15 00:44:42;;;;;;;3.3;2.8;;;;;;;18.93;92.38086;936.9377;;;;
2023/07/15 00:47:12;;;;;;;3.3;2.9;;;;;;;18.88;92.47461;936.8624;;;;
2023/07/15 00:49:36;;;;;;;3.3;3;;;;;;;18.7;93.55371;936.9277;;;;
2023/07/15 00:52:01;;;;;;;4.3;3.1;;;;;;;18.74;93.8418;936.9444;;;;
2023/07/15 00:54:29;;;;;;;3.1;2.8;;;;;;;18.6;94.16016;936.8876;;;;
2023/07/15 00:56:55;;;;;;;4;3.4;;;;;;;18.66;93.63867;936.8755;;;;
2023/07/15 00:59:19;;;;;;;4.1;2.9;;;;;;;18.54;94.27637;936.8445;;;;
2023/07/15 01:01:45;;;;;;;4.3;2.9;;;;;;;18.58;93.5166;936.9459;;;;
2023/07/15 01:04:10;;;;;;;3.6;3.3;;;;;;;18.72;92.61719;936.9755;;;;
2023/07/15 01:06:39;;;;;;;3.9;3.1;;;;;;;18.76;91.96094;936.9949;;;;
2023/07/15 01:09:07;;;;;;;3.7;2.9;;;;;;;18.82;91.41406;936.9312;;;;
2023/07/15 01:11:29;;;;;;;4.2;3.1;;;;;;;18.76;92.06543;936.9456;;;;
2023/07/15 01:14:00;;;;;;;4.7;3.3;;;;;;;18.66;92.74316;936.9858;;;;
2023/07/15 01:16:30;;;;;;;3.4;3;;;;;;;18.72;92.20996;937.0489;;;;
2023/07/15 01:19:00;;;;;;;3.6;3;;;;;;;18.61;93.44141;937.0058;;;;
2023/07/15 01:21:25;;;;;;;5.4;3;;;;;;;18.69;92.8418;937.0367;;;;
2023/07/15 01:23:51;;;;;;;3.2;2.9;;;;;;;18.68;92.27148;937.0804;;;;
2023/07/15 01:26:21;;;;;;;3.7;3;;;;;;;18.54;92.43945;937.051;;;;
2023/07/15 01:28:47;;;;;;;3.5;2.9;;;;;;;18.54;92.68164;937.0114;;;;
2023/07/15 01:31:11;;;;;;;2.9;2.6;;;;;;;18.55;92.57129;937.0579;;;;
2023/07/15 01:33:40;;;;;;;5;2.7;;;;;;;18.56;92.37305;937.0666;;;;
2023/07/15 01:36:04;;;;;;;4.3;2.7;;;;;;;18.58;91.88867;937.051;;;;
2023/07/15 01:38:33;;;;;;;4;2.8;;;;;;;18.55;91.8252;937.0572;;;;
2023/07/15 01:40:58;;;;;;;3.4;3.1;;;;;;;18.44;91.78906;937.1057;;;;
2023/07/15 01:43:24;;;;;;;4.3;3;;;;;;;18.34;92.49023;937.1019;;;;
2023/07/15 01:45:53;;;;;;;3.9;3.1;;;;;;;18.25;93.73828;937.1298;;;;
2023/07/15 01:48:18;;;;;;;5.4;3.4;;;;;;;18.17;94.39453;937.1594;;;;
2023/07/15 01:50:43;;;;;;;3.3;2.7;;;;;;;18.24;94.45703;937.1671;;;;
2023/07/15 01:53:14;;;;;;;3.7;3.4;;;;;;;18.32;94.08887;937.2017;;;;
2023/07/15 01:55:37;;;;;;;3.5;2.8;;;;;;;18.34;93.7793;937.2148;;;;
2023/07/15 01:58:05;;;;;;;4;2.9;;;;;;;18.45;93.12793;937.1805;;;;
2023/07/15 02:00:30;;;;;;;4.7;3;;;;;;;18.41;93.30566;937.1753;;;;
2023/07/15 02:03:01;;;;;;;3.3;3;;;;;;;18.11;94.59082;937.1348;;;;
2023/07/15 02:05:27;;;;;;;3.6;2.9;;;;;;;18.11;94.6582;937.1133;;;;
2023/07/15 02:07:55;;;;;;;3.3;3;;;;;;;17.99;95.04102;937.0895;;;;
2023/07/15 02:10:21;;;;;;;3.8;2.9;;;;;;;17.99;95.19238;937.1347;;;;
2023/07/15 02:12:49;;;;;;;3.6;3;;;;;;;18.14;93.47168;937.0818;;;;
2023/07/15 02:15:20;;;;;;;6.5;3;;;;;;;18.22;92.88379;937.0499;;;;
2023/07/15 02:17:49;;;;;;;3.1;2.8;;;;;;;18.31;92.2373;936.9713;;;;
2023/07/15 02:20:16;;;;;;;3.9;2.7;;;;;;;18.33;91.7793;937.0586;;;;
2023/07/15 02:22:47;;;;;;;3.6;3.2;;;;;;;18.23;92.18652;936.9747;;;;
2023/07/15 02:25:19;;;;;;;3;2.7;;;;;;;18.21;92.82227;937.0022;;;;
2023/07/15 02:27:44;;;;;;;3.9;2.7;;;;;;;18.17;93.03516;936.9571;;;;
2023/07/15 02:30:19;;;;;;;5;3.3;;;;;;;18.19;92.22559;936.9946;;;;
2023/07/15 02:32:42;;;;;;;3.1;2.8;;;;;;;18.22;92.21973;936.9594;;;;
2023/07/15 02:35:15;;;;;;;3.8;3;;;;;;;18.05;93.16016;936.9001;;;;
2023/07/15 02:37:40;;;;;;;4.3;3;;;;;;;17.87;94.36426;936.9423;;;;
2023/07/15 02:40:10;;;;;;;3.9;3.2;;;;;;;17.52;96.88672;936.905;;;;
2023/07/15 02:42:34;;;;;;;4.9;3.5;;;;;;;17.55;97;936.9011;;;;
2023/07/15 02:45:29;;;;;;;3.3;3;;;;;;;17.71;96.02539;936.9048;;;;
2023/07/15 02:48:00;;;;;;;3.3;2.9;;;;;;;17.87;94.67773;936.9004;;;;
2023/07/15 02:50:24;;;;;;;4.4;3;;;;;;;17.76;94.77051;936.97;;;;
2023/07/15 02:52:52;;;;;;;4.9;3;;;;;;;17.74;94.99805;936.9397;;;;
2023/07/15 02:55:17;;;;;;;3;2.7;;;;;;;17.75;94.86133;936.9445;;;;
2023/07/15 02:57:45;;;;;;;4.3;3.2;;;;;;;17.81;94.28223;936.8344;;;;
2023/07/15 03:00:15;;;;;;;4.1;3;;;;;;;17.91;93.80664;936.8858;;;;
2023/07/15 03:02:38;;;;;;;3.5;3;;;;;;;17.76;94.54004;936.9386;;;;
2023/07/15 03:05:10;;;;;;;3.5;3.2;;;;;;;17.53;96.14844;936.9377;;;;
2023/07/15 03:07:34;;;;;;;5;2.9;;;;;;;17.69;95.2998;936.8967;;;;
2023/07/15 03:10:06;;;;;;;3.6;3;;;;;;;17.77;94.20508;936.9149;;;;
2023/07/15 03:12:31;;;;;;;3.4;2.9;;;;;;;17.77;93.83203;936.9512;;;;
2023/07/15 03:15:01;;;;;;;46.6;24.5;;;;;;;17.62;94.4834;936.8965;;;;
2023/07/15 03:17:35;;;;;;;435.7;213.9;;;;;;;17.56;94.75098;936.9316;;;;
2023/07/15 03:19:53;;;;;;;242.4;112.1;;;;;;;17.36;95.89063;936.9359;;;;
2023/07/15 03:22:22;;;;;;;17.4;8.8;;;;;;;17.31;96.21484;936.9537;;;;
2023/07/15 03:24:47;;;;;;;5;3.9;;;;;;;17.37;96.15723;936.9744;;;;
2023/07/15 03:27:16;;;;;;;4.6;3;;;;;;;17.34;96.0127;936.9443;;;;
2023/07/15 03:29:41;;;;;;;5.2;3.1;;;;;;;17.38;95.53516;937.0064;;;;
2023/07/15 03:32:08;;;;;;;5.7;3.1;;;;;;;17.24;96.46582;936.9567;;;;
2023/07/15 03:34:33;;;;;;;4.3;2.8;;;;;;;17.11;97.13379;936.9998;;;;
2023/07/15 03:37:53;;;;;;;4.3;3.3;;;;;;;17.09;97.16406;936.9984;;;;
2023/07/15 03:40:17;;;;;;;3.2;2.7;;;;;;;17.07;96.87109;936.9722;;;;
2023/07/15 03:42:47;;;;;;;4.9;2.9;;;;;;;17.01;97.51758;936.9963;;;;
2023/07/15 03:45:19;;;;;;;3.5;3;;;;;;;16.97;97.82422;937.0131;;;;
2023/07/15 03:47:49;;;;;;;3.6;2.7;;;;;;;17;97.2832;937.0109;;;;
2023/07/15 03:50:16;;;;;;;4.1;3.4;;;;;;;17.01;96.98438;937.0463;;;;
2023/07/15 03:52:45;;;;;;;2.8;2.5;;;;;;;17.1;96.30859;936.9807;;;;
2023/07/15 03:55:11;;;;;;;2.6;2.4;;;;;;;17.02;96.16504;937.0245;;;;
2023/07/15 03:57:35;;;;;;;4;2.8;;;;;;;17.05;96.21777;937.0587;;;;
2023/07/15 04:00:03;;;;;;;3.1;2.8;;;;;;;17.09;96.00586;937.1063;;;;
2023/07/15 04:02:34;;;;;;;4.8;2.5;;;;;;;17.3;95.11133;937.0844;;;;
2023/07/15 04:05:03;;;;;;;4.9;3.2;;;;;;;17.29;94.64746;937.0948;;;;
2023/07/15 04:07:28;;;;;;;4;3.5;;;;;;;17.24;94.92578;937.1569;;;;
2023/07/15 04:09:53;;;;;;;5.4;4.3;;;;;;;17.26;94.7793;937.0416;;;;
2023/07/15 04:12:24;;;;;;;4.4;3.4;;;;;;;17.27;94.43359;937.0864;;;;
2023/07/15 04:14:53;;;;;;;6.6;4.1;;;;;;;17.26;94.70996;937.1019;;;;
2023/07/15 04:17:24;;;;;;;3.8;3.4;;;;;;;17.18;95.49219;937.1312;;;;
2023/07/15 04:19:53;;;;;;;6.4;3.4;;;;;;;17.25;95.01855;937.1078;;;;
2023/07/15 04:22:19;;;;;;;4.1;3.1;;;;;;;17.25;94.91406;937.0837;;;;
2023/07/15 04:24:43;;;;;;;3.6;2.9;;;;;;;17.18;94.95898;937.0974;;;;
2023/07/15 04:27:08;;;;;;;4.4;3.3;;;;;;;17.14;95.08984;937.0932;;;;
2023/07/15 04:29:35;;;;;;;7;3.2;;;;;;;17.16;95.11523;937.1277;;;;
2023/07/15 04:32:01;;;;;;;6.1;3.9;;;;;;;17.26;94.59375;937.0633;;;;
2023/07/15 04:35:19;;;;;;;4.9;3.7;;;;;;;17.33;94.35352;937.0692;;;;
2023/07/15 04:37:50;;;;;;;4.6;3.3;;;;;;;17.28;94.85254;937.0823;;;;
2023/07/15 04:44:03;;;;;;;38.7;21.8;;;;;;;17.31;94.62695;936.9295;;;;
2023/07/15 04:46:28;;;;;;;6;4;;;;;;;17.29;94.70605;936.9371;;;;
2023/07/15 04:48:57;;;;;;;4.7;3.3;;;;;;;17.22;95.17676;936.9956;;;;
2023/07/15 04:51:25;;;;;;;5.5;3.7;;;;;;;17.15;95.82227;936.9894;;;;
2023/07/15 04:53:50;;;;;;;4.2;3.8;;;;;;;17.14;95.71387;937.0466;;;;
2023/07/15 04:56:18;;;;;;;4.7;3.8;;;;;;;17.12;95.63086;937.0421;;;;
2023/07/15 04:58:42;;;;;;;5.9;4;;;;;;;17.14;95.46094;936.9725;;;;
2023/07/15 05:01:13;;;;;;;5.1;3.5;;;;;;;17.22;95.01465;936.965;;;;
2023/07/15 05:03:42;;;;;;;5.1;3.2;;;;;;;17.32;94.61719;936.9431;;;;
2023/07/15 05:06:08;;;;;;;4.3;3;;;;;;;17.31;95.02051;937.0424;;;;
2023/07/15 05:08:37;;;;;;;3.6;3.1;;;;;;;17.28;95.38574;936.9437;;;;
2023/07/15 05:11:02;;;;;;;4;3;;;;;;;17.45;94.93555;936.9417;;;;
2023/07/15 05:13:32;;;;;;;4.3;2.8;;;;;;;18.38;90.1709;936.9215;;;;
2023/07/15 05:15:58;;;;;;;3;2.7;;;;;;;19.38;86.29883;936.8961;;;;
2023/07/15 05:18:23;;;;;;;4.2;2.6;;;;;;;20.57;82.05762;936.8599;;;;
2023/07/15 05:20:51;;;;;;;4.2;2.4;;;;;;;21.65;73.97852;936.8987;;;;
2023/07/15 05:23:16;;;;;;;2.2;2;;;;;;;22.56;70.04688;936.8864;;;;
2023/07/15 05:25:45;;;;;;;2.9;2.3;;;;;;;23.09;67.37012;936.8203;;;;
2023/07/15 05:28:10;;;;;;;2.5;2.3;;;;;;;23.37;65.87207;936.8395;;;;
2023/07/15 05:30:38;;;;;;;3.7;2;;;;;;;24.2;62.18945;936.7976;;;;
2023/07/15 05:33:05;;;;;;;2.3;2.1;;;;;;;24.89;60.55176;936.848;;;;
2023/07/15 05:35:31;;;;;;;2.7;2.1;;;;;;;25.07;59.21777;936.8596;;;;
2023/07/15 05:38:03;;;;;;;3;2;;;;;;;25.15;59.3125;936.8309;;;;
2023/07/15 05:40:31;;;;;;;3.6;2.2;;;;;;;25.65;57.80664;936.8155;;;;
2023/07/15 05:42:59;;;;;;;2.4;2;;;;;;;26.37;56.82422;936.7708;;;;
2023/07/15 05:45:24;;;;;;;3;2;;;;;;;26.26;55.60254;936.7808;;;;
2023/07/15 05:47:52;;;;;;;2.5;2.1;;;;;;;26.31;53.89258;936.7545;;;;
2023/07/15 05:50:23;;;;;;;2.3;1.9;;;;;;;26.88;52.52734;936.7285;;;;
2023/07/15 05:52:52;;;;;;;2.4;2;;;;;;;26.81;51.67773;936.6453;;;;
2023/07/15 05:55:17;;;;;;;4.4;2.3;;;;;;;26.62;52.83984;936.7489;;;;
2023/07/15 05:57:44;;;;;;;3.5;2.2;;;;;;;27.25;52.33301;936.6844;;;;
2023/07/15 06:00:09;;;;;;;2.6;1.9;;;;;;;28.13;50.47461;936.6066;;;;
2023/07/15 06:02:40;;;;;;;2.2;2;;;;;;;28.07;48.44922;936.6467;;;;
2023/07/15 06:05:09;;;;;;;3;2.1;;;;;;;27.94;49.20605;936.6187;;;;
2023/07/15 06:07:39;;;;;;;3.4;2;;;;;;;28.27;48.00684;936.5427;;;;
2023/07/15 06:10:13;;;;;;;2;1.8;;;;;;;28.27;47.88867;936.5701;;;;
2023/07/15 06:12:39;;;;;;;2.3;2.1;;;;;;;29.48;46.39551;936.6261;;;;
2023/07/15 06:15:04;;;;;;;2.1;1.8;;;;;;;29.78;45.24609;936.5804;;;;
2023/07/15 06:17:34;;;;;;;4.5;2.1;;;;;;;30.97;42.43457;936.5175;;;;
2023/07/15 06:20:04;;;;;;;2.5;1.8;;;;;;;31.43;41.84375;936.467;;;;
2023/07/15 06:22:29;;;;;;;3.5;2;;;;;;;31.85;40.85352;936.4469;;;;
2023/07/15 06:24:56;;;;;;;3.9;2.4;;;;;;;32.67;39.9541;936.3353;;;;
2023/07/15 06:27:22;;;;;;;2.2;1.9;;;;;;;32.26;40.51758;936.3697;;;;
2023/07/15 06:29:49;;;;;;;3.7;1.8;;;;;;;32.53;41.41797;936.347;;;;
2023/07/15 06:32:15;;;;;;;2.1;1.9;;;;;;;32.71;39.1416;936.2424;;;;
2023/07/15 06:34:42;;;;;;;2.1;1.9;;;;;;;31.89;41.24023;936.2388;;;;
2023/07/15 06:37:07;;;;;;;2.8;1.7;;;;;;;33.03;39.55371;936.1764;;;;
2023/07/15 06:39:34;;;;;;;3.1;2;;;;;;;32.49;40.63477;936.1541;;;;
2023/07/15 06:41:59;;;;;;;3.3;2.1;;;;;;;32.2;41.31543;936.1049;;;;
2023/07/15 06:44:32;;;;;;;2.2;1.7;;;;;;;32.79;40.78125;936.1142;;;;
2023/07/15 06:46:59;;;;;;;2.1;1.9;;;;;;;33.78;37.40527;936.1344;;;;
2023/07/15 06:49:24;;;;;;;2.7;2;;;;;;;34.19;36.80078;936.1245;;;;
2023/07/15 06:51:53;;;;;;;3.1;2;;;;;;;33.66;37.2627;936.0351;;;;
2023/07/15 06:54:18;;;;;;;2;1.8;;;;;;;35.17;35.7207;935.9977;;;;
2023/07/15 06:56:47;;;;;;;2.9;1.7;;;;;;;34.81;34.24609;936.0239;;;;
2023/07/15 06:59:17;;;;;;;2.5;2;;;;;;;34.75;35.44727;935.9846;;;;
2023/07/15 07:01:42;;;;;;;2.8;1.7;;;;;;;35.87;36.52539;935.9281;;;;
2023/07/15 07:04:11;;;;;;;1.8;1.7;;;;;;;34.41;38.10645;935.9226;;;;
2023/07/15 07:06:41;;;;;;;2.2;2;;;;;;;33.84;37.49414;935.8113;;;;
2023/07/15 07:09:06;;;;;;;3.1;2;;;;;;;34.82;36.03125;935.7555;;;;
2023/07/15 07:11:36;;;;;;;2.4;1.9;;;;;;;35.89;36.00684;935.6749;;;;
2023/07/15 07:14:04;;;;;;;2.6;1.9;;;;;;;35.62;35.13965;935.7047;;;;
2023/07/15 07:16:27;;;;;;;3.7;1.8;;;;;;;35.54;34.59082;935.6721;;;;
2023/07/15 07:18:57;;;;;;;2.1;1.9;;;;;;;36.38;32.92383;935.6398;;;;
2023/07/15 07:21:22;;;;;;;3.2;2.1;;;;;;;36.37;32.94727;935.632;;;;
2023/07/15 07:23:52;;;;;;;2;1.8;;;;;;;37.23;31.99023;935.634;;;;
2023/07/15 07:26:12;;;;;;;2.2;2;;;;;;;37.67;31.01367;935.6028;;;;
2023/07/15 07:28:42;;;;;;;4.5;2.5;;;;;;;38.27;30.24121;935.5703;;;;
2023/07/15 07:31:10;;;;;;;3.1;2.3;;;;;;;37.34;30.79785;935.5497;;;;
2023/07/15 07:33:38;;;;;;;2.4;2.2;;;;;;;37.61;29.97949;935.5367;;;;
2023/07/15 07:36:03;;;;;;;2;1.8;;;;;;;38.18;30.50195;935.5657;;;;
2023/07/15 07:38:31;;;;;;;3.4;2.1;;;;;;;37.97;30.41504;935.5472;;;;
2023/07/15 07:40:56;;;;;;;2.4;1.9;;;;;;;37.38;30.72754;935.5711;;;;
2023/07/15 07:43:27;;;;;;;2.4;1.8;;;;;;;36.82;30.62988;935.5297;;;;
2023/07/15 07:45:55;;;;;;;3.5;2.2;;;;;;;37.79;30.5127;935.5491;;;;
2023/07/15 07:48:20;;;;;;;2.1;1.8;;;;;;;36.43;31.14844;935.4286;;;;
2023/07/15 07:50:48;;;;;;;3.2;2;;;;;;;38.04;28.25879;935.3387;;;;
2023/07/15 07:53:13;;;;;;;2.8;1.9;;;;;;;36.75;29.92285;935.3167;;;;
2023/07/15 07:55:42;;;;;;;2.2;1.9;;;;;;;36.57;29.8623;935.2386;;;;
2023/07/15 07:58:07;;;;;;;2;1.7;;;;;;;35.91;32.06738;935.195;;;;
2023/07/15 08:00:35;;;;;;;3;2.4;;;;;;;36.53;29.1582;935.163;;;;
2023/07/15 08:03:07;;;;;;;1.8;1.7;;;;;;;37.27;29.42383;935.1781;;;;
2023/07/15 08:05:39;;;;;;;2.1;1.9;;;;;;;38.38;26.54102;935.1876;;;;
2023/07/15 08:08:09;;;;;;;2;1.8;;;;;;;36.72;29.60645;935.1277;;;;
2023/07/15 08:10:34;;;;;;;1.8;1.7;;;;;;;37.43;30.27051;935.1395;;;;
2023/07/15 08:13:02;;;;;;;3;1.9;;;;;;;38.9;29.33301;935.0977;;;;
2023/07/15 08:15:29;;;;;;;1.9;1.8;;;;;;;36.86;29.19141;935.0069;;;;
2023/07/15 08:18:02;;;;;;;5.2;4.7;;;;;;;37.28;28.66016;934.9777;;;;
2023/07/15 08:20:33;;;;;;;4.7;4.3;;;;;;;37.95;27.86426;934.9833;;;;
2023/07/15 08:22:59;;;;;;;4.1;3.8;;;;;;;38.8;27.06445;934.9794;;;;
2023/07/15 08:25:25;;;;;;;2.9;2.6;;;;;;;38.27;26.96094;934.9325;;;;
2023/07/15 08:27:56;;;;;;;2.3;2;;;;;;;37.65;27.51855;934.9777;;;;
2023/07/15 08:30:27;;;;;;;2.3;2.1;;;;;;;38.17;26.43262;934.9648;;;;
2023/07/15 08:32:59;;;;;;;3.4;2.5;;;;;;;39.26;28.21094;934.9023;;;;
2023/07/15 08:35:32;;;;;;;2.4;1.9;;;;;;;39.67;25.95801;934.8978;;;;
2023/07/15 08:37:57;;;;;;;2;1.8;;;;;;;39.48;24.81445;934.8619;;;;
2023/07/15 08:40:24;;;;;;;3.4;2.2;;;;;;;40.18;25.7793;934.8452;;;;
2023/07/15 08:42:49;;;;;;;2.6;2.2;;;;;;;40.08;25.82227;934.7966;;;;
2023/07/15 08:45:17;;;;;;;2.4;2.2;;;;;;;40.53;25.05371;934.8039;;;;
2023/07/15 08:47:49;;;;;;;2.2;1.7;;;;;;;40.77;24.84668;934.7377;;;;
2023/07/15 08:50:15;;;;;;;2;1.8;;;;;;;40.97;24.35645;934.6975;;;;
2023/07/15 08:52:40;;;;;;;2;1.7;;;;;;;40.97;24.22266;934.7142;;;;
2023/07/15 08:55:13;;;;;;;2;1.8;;;;;;;41.28;23.43066;934.7668;;;;
2023/07/15 08:57:38;;;;;;;2.5;2;;;;;;;41.83;25.24707;934.7709;;;;
2023/07/15 09:00:08;;;;;;;1.9;1.8;;;;;;;41.52;24.10449;934.7455;;;;
2023/07/15 09:02:31;;;;;;;1.7;1.6;;;;;;;40.97;24.80859;934.6825;;;;
2023/07/15 09:05:01;;;;;;;1.7;1.6;;;;;;;41.61;24.54883;934.6778;;;;
2023/07/15 09:07:34;;;;;;;2.7;1.4;;;;;;;39.98;22.79199;934.6364;;;;
2023/07/15 09:09:59;;;;;;;1.8;1.6;;;;;;;38.74;24.62793;934.6273;;;;
2023/07/15 09:12:27;;;;;;;4.4;2.4;;;;;;;38.86;25.26758;934.5291;;;;
2023/07/15 09:14:52;;;;;;;1.9;1.8;;;;;;;38.93;25.40527;934.5058;;;;
2023/07/15 09:17:17;;;;;;;1.9;1.7;;;;;;;39.45;25.5918;934.4519;;;;
2023/07/15 09:19:46;;;;;;;1.9;1.6;;;;;;;38.68;25.03809;934.4341;;;;
2023/07/15 09:22:11;;;;;;;1.7;1.6;;;;;;;38.61;26.36035;934.4778;;;;
2023/07/15 09:24:37;;;;;;;2;1.8;;;;;;;38.23;25.59668;934.474;;;;
2023/07/15 09:27:02;;;;;;;2;1.8;;;;;;;38.4;26.31152;934.4371;;;;
2023/07/15 09:29:30;;;;;;;2.3;1.9;;;;;;;38.73;25.24805;934.3777;;;;
2023/07/15 09:31:55;;;;;;;2;1.9;;;;;;;38.41;26.05664;934.3928;;;;
2023/07/15 09:34:24;;;;;;;1.8;1.7;;;;;;;38.49;28.54102;934.4254;;;;
2023/07/15 09:36:48;;;;;;;2.5;1.9;;;;;;;37.99;26.21582;934.3826;;;;
2023/07/15 09:39:19;;;;;;;2.4;1.7;;;;;;;37.54;28.08203;934.3926;;;;
2023/07/15 09:41:43;;;;;;;2;1.8;;;;;;;36;32.48535;934.3036;;;;
2023/07/15 09:44:10;;;;;;;2.1;1.6;;;;;;;36.08;32.22461;934.3153;;;;
2023/07/15 09:46:35;;;;;;;2.1;1.9;;;;;;;36.69;31.23926;934.277;;;;
2023/07/15 09:49:02;;;;;;;2.2;1.8;;;;;;;37.13;31.28027;934.3226;;;;
2023/07/15 09:51:27;;;;;;;2.2;1.7;;;;;;;36.22;34.69043;934.2843;;;;
2023/07/15 09:53:55;;;;;;;2.8;2;;;;;;;36.56;34.75293;934.2495;;;;
2023/07/15 09:56:23;;;;;;;3.1;1.8;;;;;;;35.84;32.0625;934.2715;;;;
2023/07/15 09:58:52;;;;;;;2.3;1.7;;;;;;;35.36;34.00977;934.2902;;;;
2023/07/15 10:01:17;;;;;;;1.8;1.7;;;;;;;35.13;32.11035;934.2548;;;;
2023/07/15 10:03:44;;;;;;;2.1;1.9;;;;;;;35.9;30.72656;934.209;;;;
2023/07/15 10:06:11;;;;;;;1.8;1.7;;;;;;;36.66;30.14648;934.2054;;;;
2023/07/15 10:08:36;;;;;;;1.9;1.8;;;;;;;36.51;31.20215;934.2252;;;;
2023/07/15 10:11:02;;;;;;;2.3;2;;;;;;;35.85;32.17285;934.1627;;;;
2023/07/15 10:13:27;;;;;;;1.9;1.7;;;;;;;35.23;32.67188;934.1646;;;;
2023/07/15 10:15:57;;;;;;;3.1;1.9;;;;;;;35.21;32.24805;934.1642;;;;
2023/07/15 10:18:24;;;;;;;2;1.9;;;;;;;34.87;32.98438;934.1124;;;;
2023/07/15 10:20:47;;;;;;;2.2;1.7;;;;;;;35.07;32.28613;934.1467;;;;
2023/07/15 10:23:13;;;;;;;2.2;2;;;;;;;34.83;33.22266;934.1331;;;;
2023/07/15 10:25:41;;;;;;;2.2;2;;;;;;;34.98;33.40234;934.1252;;;;
2023/07/15 10:28:06;;;;;;;2;1.8;;;;;;;35.3;36.43164;934.1764;;;;
2023/07/15 10:30:34;;;;;;;2.1;1.9;;;;;;;35.55;30.07422;934.1633;;;;
2023/07/15 10:32:59;;;;;;;2.1;1.9;;;;;;;35.01;29.79785;934.1278;;;;
2023/07/15 10:35:24;;;;;;;1.7;1.6;;;;;;;35.11;30.1416;934.0859;;;;
2023/07/15 10:37:51;;;;;;;1.9;1.7;;;;;;;35.29;28.20996;934.0466;;;;
2023/07/15 10:40:17;;;;;;;1.5;1.4;;;;;;;35.35;30.22949;934.0167;;;;
2023/07/15 10:42:47;;;;;;;2.2;1.7;;;;;;;35.18;29.22949;933.9486;;;;
2023/07/15 10:45:19;;;;;;;2.8;1.9;;;;;;;34.95;33.35156;933.9063;;;;
2023/07/15 10:47:48;;;;;;;2.8;2;;;;;;;35.4;31.6582;933.8435;;;;
2023/07/15 10:50:13;;;;;;;2.7;2.2;;;;;;;35.26;34.26758;933.8251;;;;
2023/07/15 10:52:45;;;;;;;2.2;1.7;;;;;;;34.79;33.32813;933.7344;;;;
2023/07/15 10:55:17;;;;;;;2.6;1.9;;;;;;;35.05;36.02539;933.738;;;;
2023/07/15 10:57:43;;;;;;;2.3;1.7;;;;;;;34.77;36.47461;933.6937;;;;
2023/07/15 11:00:19;;;;;;;2.1;1.8;;;;;;;34.89;37.44824;933.7028;;;;
2023/07/15 11:02:47;;;;;;;1.7;1.6;;;;;;;34.98;33.3418;933.6738;;;;
2023/07/15 11:05:12;;;;;;;2.2;2;;;;;;;35.05;35.7959;933.6548;;;;
2023/07/15 11:07:40;;;;;;;3.1;2.3;;;;;;;34.8;35.04102;933.6258;;;;
2023/07/15 11:10:19;;;;;;;1.9;1.6;;;;;;;35.02;35.89063;933.6116;;;;
2023/07/15 11:12:48;;;;;;;2.1;1.9;;;;;;;34.71;36.41992;933.5212;;;;
2023/07/15 11:15:28;;;;;;;2;1.8;;;;;;;34.57;37.08398;933.4944;;;;
2023/07/15 11:17:53;;;;;;;2;1.8;;;;;;;34.5;39.12695;933.4894;;;;
2023/07/15 11:20:22;;;;;;;2.2;1.8;;;;;;;34.66;32.87207;933.4112;;;;
2023/07/15 11:22:55;;;;;;;2.5;2.3;;;;;;;34.67;32.11426;933.3347;;;;
2023/07/15 11:25:22;;;;;;;2.4;2.2;;;;;;;34.66;34.87402;933.3088;;;;
2023/07/15 11:27:51;;;;;;;1.7;1.6;;;;;;;34.99;33.40234;933.2795;;;;
2023/07/15 11:30:22;;;;;;;2;1.8;;;;;;;35.15;31.30273;933.2583;;;;
2023/07/15 11:32:56;;;;;;;2.1;1.6;;;;;;;35.18;33.86328;933.1786;;;;
2023/07/15 11:35:25;;;;;;;2.8;1.9;;;;;;;35.09;33.6875;933.1906;;;;
2023/07/15 11:37:52;;;;;;;2.1;1.7;;;;;;;34.93;33.53125;933.1097;;;;
2023/07/15 11:40:25;;;;;;;1.9;1.8;;;;;;;34.92;31.6123;933.0776;;;;
2023/07/15 11:42:51;;;;;;;2.5;1.9;;;;;;;34.75;34.43457;933.0449;;;;
2023/07/15 11:45:23;;;;;;;2.3;1.8;;;;;;;34.35;32.1875;933.0054;;;;
2023/07/15 11:47:57;;;;;;;1.7;1.6;;;;;;;34.51;34.58496;933.0139;;;;
2023/07/15 11:50:28;;;;;;;1.8;1.7;;;;;;;34.51;31.59668;933.0182;;;;
2023/07/15 11:52:55;;;;;;;3.2;2.2;;;;;;;34.46;32.14648;932.9832;;;;
2023/07/15 11:55:22;;;;;;;2.5;1.9;;;;;;;34.49;31.2207;932.9064;;;;
2023/07/15 11:57:45;;;;;;;2.1;1.9;;;;;;;34.67;30.70313;932.7717;;;;
2023/07/15 12:00:18;;;;;;;2.1;1.8;;;;;;;35;32.05273;932.8167;;;;
2023/07/15 12:02:50;;;;;;;2.1;1.9;;;;;;;34.97;29.64941;932.7589;;;;
2023/07/15 12:05:22;;;;;;;2.2;1.9;;;;;;;35.01;30.66602;932.7567;;;;
2023/07/15 12:07:47;;;;;;;2;1.8;;;;;;;35.1;31.78223;932.6964;;;;
2023/07/15 12:10:16;;;;;;;3.6;2.1;;;;;;;35.06;33.19043;932.6069;;;;
2023/07/15 12:12:45;;;;;;;2.1;1.9;;;;;;;35.08;30.95996;932.5382;;;;
2023/07/15 12:15:16;;;;;;;2.5;1.7;;;;;;;35;30.33984;932.5309;;;;
2023/07/15 12:17:43;;;;;;;2.1;1.6;;;;;;;35.29;30.2627;932.5306;;;;
2023/07/15 12:20:12;;;;;;;2.3;1.8;;;;;;;35.49;29.39355;932.5142;;;;
2023/07/15 12:22:40;;;;;;;1.8;1.7;;;;;;;35.5;29.39453;932.478;;;;
2023/07/15 12:25:17;;;;;;;2;1.8;;;;;;;35.57;28.91602;932.4058;;;;
2023/07/15 12:27:45;;;;;;;2.2;2;;;;;;;35.63;29.99512;932.3732;;;;
2023/07/15 12:30:09;;;;;;;2.3;1.8;;;;;;;35.6;29.14746;932.3773;;;;
2023/07/15 12:32:39;;;;;;;2.4;1.6;;;;;;;35.11;28.12695;932.3356;;;;
2023/07/15 12:35:15;;;;;;;1.9;1.7;;;;;;;35.3;27.57031;932.327;;;;
2023/07/15 12:37:40;;;;;;;1.7;1.6;;;;;;;35;30.24316;932.2594;;;;
2023/07/15 12:40:13;;;;;;;2.3;1.8;;;;;;;34.3;31.57031;932.247;;;;
2023/07/15 12:42:44;;;;;;;2.5;1.9;;;;;;;34.14;30.96875;932.2608;;;;
2023/07/15 12:45:20;;;;;;;2.7;2.3;;;;;;;34.55;28.47754;932.2072;;;;
2023/07/15 12:47:50;;;;;;;1.7;1.6;;;;;;;34.26;28.94141;932.1627;;;;
2023/07/15 12:50:16;;;;;;;1.8;1.7;;;;;;;34.39;31.97363;932.1649;;;;
2023/07/15 12:52:47;;;;;;;2.7;1.8;;;;;;;34.55;30.94824;932.1487;;;;
2023/07/15 12:55:17;;;;;;;2.3;1.9;;;;;;;34.71;29.21094;932.0906;;;;
2023/07/15 12:57:44;;;;;;;2.2;1.9;;;;;;;34.76;30.60059;932.0753;;;;
2023/07/15 13:00:11;;;;;;;2.1;1.9;;;;;;;34.85;28.58105;932.1147;;;;
2023/07/15 13:02:34;;;;;;;1.9;1.7;;;;;;;35.03;27.48242;932.103;;;;
2023/07/15 13:05:05;;;;;;;1.7;1.6;;;;;;;34.89;28.83691;932.0378;;;;
2023/07/15 13:07:30;;;;;;;2;1.8;;;;;;;34.93;28.86328;931.9881;;;;
2023/07/15 13:09:59;;;;;;;2.8;1.8;;;;;;;35.01;28.45801;932.0249;;;;
2023/07/15 13:12:24;;;;;;;1.9;1.7;;;;;;;35.48;28.60742;931.9934;;;;
2023/07/15 13:14:52;;;;;;;2.8;2;;;;;;;36.04;29.5498;931.9646;;;;
2023/07/15 13:17:17;;;;;;;4.1;1.9;;;;;;;35.97;26.78906;931.9911;;;;
2023/07/15 13:19:47;;;;;;;2;1.8;;;;;;;36.2;27.38379;931.9375;;;;
2023/07/15 13:22:12;;;;;;;3.9;2.4;;;;;;;36.43;27.88086;931.8391;;;;
2023/07/15 13:24:42;;;;;;;2.5;1.9;;;;;;;35.69;27.35254;931.9008;;;;
2023/07/15 13:27:10;;;;;;;2.7;1.9;;;;;;;35.95;26.74023;931.8661;;;;
2023/07/15 13:29:35;;;;;;;1.8;1.7;;;;;;;36.21;27.89258;931.8641;;;;
2023/07/15 13:32:05;;;;;;;2.6;1.6;;;;;;;36.47;32.24023;931.8788;;;;
2023/07/15 13:34:30;;;;;;;2.5;1.9;;;;;;;36.61;26.07617;931.8582;;;;
2023/07/15 13:36:56;;;;;;;2.3;1.9;;;;;;;36.74;25.91406;931.8823;;;;
2023/07/15 13:39:21;;;;;;;2.5;1.7;;;;;;;36.28;26.2627;931.8189;;;;
2023/07/15 13:41:50;;;;;;;1.5;1.4;;;;;;;36.24;28.50977;931.7935;;;;
2023/07/15 13:44:21;;;;;;;1.7;1.6;;;;;;;36.06;28.64355;931.7811;;;;
2023/07/15 13:46:46;;;;;;;2.2;1.9;;;;;;;35.88;28.29492;931.7661;;;;
2023/07/15 13:49:11;;;;;;;2.1;1.9;;;;;;;35.77;27.91309;931.7324;;;;
2023/07/15 13:51:36;;;;;;;2.2;1.7;;;;;;;35.46;27.19434;931.6531;;;;
2023/07/15 13:54:09;;;;;;;3.2;1.7;;;;;;;34.77;29.93848;931.67;;;;
2023/07/15 13:56:35;;;;;;;2.1;1.9;;;;;;;34.73;28.36914;931.6624;;;;
2023/07/15 13:59:00;;;;;;;3.3;1.7;;;;;;;34.73;28.95898;931.6325;;;;
2023/07/15 14:01:25;;;;;;;4.2;2;;;;;;;34.63;29.76074;931.5549;;;;
2023/07/15 14:03:51;;;;;;;2.4;1.9;;;;;;;34.61;27.86621;931.6219;;;;
2023/07/15 14:06:17;;;;;;;2.5;1.6;;;;;;;34.76;30.19141;931.5563;;;;
2023/07/15 14:08:45;;;;;;;2.1;1.9;;;;;;;34.19;30.17773;931.5787;;;;
2023/07/15 14:11:11;;;;;;;2.2;1.9;;;;;;;33.96;28.76563;931.5209;;;;
2023/07/15 14:13:37;;;;;;;3.1;1.9;;;;;;;34.15;30.86035;931.5016;;;;
2023/07/15 14:16:02;;;;;;;1.9;1.7;;;;;;;34.3;28.7998;931.4655;;;;
2023/07/15 14:18:33;;;;;;;3.6;1.7;;;;;;;34.45;28.82129;931.4648;;;;
2023/07/15 14:20:58;;;;;;;1.8;1.7;;;;;;;34.62;29.12109;931.4191;;;;
2023/07/15 14:23:25;;;;;;;1.5;1.4;;;;;;;34.67;28.14746;931.4069;;;;
2023/07/15 14:25:50;;;;;;;2.4;1.7;;;;;;;34.6;30.03613;931.4713;;;;
2023/07/15 14:28:17;;;;;;;2.5;1.8;;;;;;;34.56;28.71973;931.3958;;;;
2023/07/15 14:30:42;;;;;;;3.2;1.9;;;;;;;34.58;33.73438;931.4097;;;;
2023/07/15 14:33:11;;;;;;;4.3;2;;;;;;;34.64;28.72363;931.3653;;;;
2023/07/15 14:35:36;;;;;;;1.9;1.7;;;;;;;34.84;27.56641;931.3521;;;;